Saint Germain, WI (54558)

8:30 AM CDT on August 29, 2015 (GMT -0500)
PlumLake- East Shore | | Change Station
CLOSE
Current Station
Personal Weather Station
Location: Sayner, WI
Elevation: 1670 ft
Nearby Weather Stations

Elev 1670 ft 46.00 °N, 89.53 °W | Updated 46 seconds ago

Partly Cloudy
Partly Cloudy
58.8 °F
Feels Like 58.8 °F
N
0.2
Wind Variable Wind from SSW
Gusts 2.5 mph

Today
High -- | Low -- °F
--% Chance of Precip.
Yesterday
High -- | Low -- °F
Precip. -- in
6:14 AM 7:42 PM
Full, 100% visible
Pressure 30.04 in
Visibility 10.0 miles
Clouds Clear
Dew Point 56 °F
Humidity 90%
Rainfall 0.00 in
Snow Depth Not available.
UV 1.0 out of 12
Pollen 8.90 out of 12
Air Quality Not available.
Flu Activity Not available.
METAR KEGV 291315Z AUTO 19004KT 10SM CLR 14/13 A3004 RMK AO2 T01430131
Pressure 30.04 in
Visibility 10.0 miles
Clouds Clear
Dew Point 56 °F
Humidity 90%
Rainfall 0.00 in
Snow Depth Not available.
UV 1.0 out of 12
Pollen 8.90 out of 12
Air Quality Not available.
Flu Activity Not available.
METAR KEGV 291315Z AUTO 19004KT 10SM CLR 14/13 A3004 RMK AO2 T01430131

10-Day Weather Forecast

×

Almanac

Astronomy

Aug. 29, 2015 Rise Set
Actual Time
Civil Twilight
Nautical Twilight
Astronomical Twilight
Moon
Length of Visible Light
Length of Day
Tomorrow will be .
, % of the Moon is Illuminated

Today's Extremes

State Highs State Lows

Community

WunderPhotos

Upload Photos

1,850,686 photos uploaded!

WunderBlogs® & News

Nearby

Air Quality

  Air Quality AQ Index Pollutant
Not available.

Snow Depth

Station Depth Elevation

Earthquake Activity

City Distance Mag. Time & Date
Minimum magnitude displayed is 2.5.

Coastal Water Temperatures

Place Temperature

Stations

Nearby Weather Stations

Station Location Temp. Windchill Dew Point Humidity Wind Precip. Elev Updated Type